Sti Winnie — V7EP8 — position and weather

sailwx.info

Track history (hours):
 
Tides and Currents Weather Stations Pressure Air Temp Water Temp Dewpoint Dewpoint Depression Visibility Wind Speed Wind Dir Waves Ship Positions

Sti Winnie

Last reported at 2018-May-27 04:08 UTC. Time now 2018-Jun-23 14:01 UTC.
Position N 22°35' E 069°48'.
Warning: this ship's position is 27 days out of date.

Length 256 m; draft 8.8 m.

Type: Tanker. MMSI: 538005511.

Date/timePositionNaut miles runAvg speedWind from/ knotsBaromVisibWave heightAir tempDewpointWater temp
2018-May-27 04:08N 22°35' E 069°48'0 0.8
2018-May-27 03:48N 22°35' E 069°48'1 1.8
2018-May-27 03:30N 22°35' E 069°49'2 3.4
2018-May-27 03:00N 22°35' E 069°51'1 1.2
2018-May-27 02:30N 22°35' E 069°51'62 2.0
2018-May-25 19:48N 22°10' E 068°50'1 4.0
2018-May-25 19:30N 22°08' E 068°50'510.3
2018-May-25 19:00N 22°03' E 068°51'25211.9
2018-May-24 21:54N 18°07' E 070°24'2611.6
2018-May-24 19:39N 17°43' E 070°34'511.2
2018-May-24 19:14N 17°39' E 070°36'1811.6
2018-May-24 17:42N 17°22' E 070°42'211.8
2018-May-24 17:31N 17°20' E 070°43'611.9
2018-May-24 17:01N 17°14' E 070°45'1211.8
2018-May-24 16:00N 17°03' E 070°48'611.5
2018-May-24 15:30N 16°57' E 070°50'  
Track history (hours):
 
Tides and Currents Weather Stations Pressure Air Temp Water Temp Dewpoint Dewpoint Depression Visibility Wind Speed Wind Dir Waves Ship Positions

Sti Winnie

Last reported at 2018-May-27 04:08 UTC. Time now 2018-Jun-23 14:01 UTC.
Position N 22°35' E 069°48'.
Warning: this ship's position is 27 days out of date.

Length 256 m; draft 8.8 m.

Type: Tanker. MMSI: 538005511.

Date/timePositionNaut miles runAvg speedWind from/ knotsBaromVisibWave heightAir tempDewpointWater temp
2018-May-27 04:08N 22°35' E 069°48'0 0.8
2018-May-27 03:48N 22°35' E 069°48'1 1.8
2018-May-27 03:30N 22°35' E 069°49'2 3.4
2018-May-27 03:00N 22°35' E 069°51'1 1.2
2018-May-27 02:30N 22°35' E 069°51'62 2.0
2018-May-25 19:48N 22°10' E 068°50'1 4.0
2018-May-25 19:30N 22°08' E 068°50'510.3
2018-May-25 19:00N 22°03' E 068°51'25211.9
2018-May-24 21:54N 18°07' E 070°24'2611.6
2018-May-24 19:39N 17°43' E 070°34'511.2
2018-May-24 19:14N 17°39' E 070°36'1811.6
2018-May-24 17:42N 17°22' E 070°42'211.8
2018-May-24 17:31N 17°20' E 070°43'611.9
2018-May-24 17:01N 17°14' E 070°45'1211.8
2018-May-24 16:00N 17°03' E 070°48'611.5
2018-May-24 15:30N 16°57' E 070°50'  

Dump ship's entire track history